sensor_id;sensor_type;location;lat;lon;timestamp;temperature;humidity
69418;DHT22;56610;48.872;2.400;2023-07-29T00:01:05;23.50;99.90
69418;DHT22;56610;48.872;2.400;2023-07-29T00:03:31;23.60;99.90
69418;DHT22;56610;48.872;2.400;2023-07-29T00:05:57;23.70;99.90
69418;DHT22;56610;48.872;2.400;2023-07-29T00:08:23;23.60;99.90
69418;DHT22;56610;48.872;2.400;2023-07-29T00:10:49;23.60;99.90
69418;DHT22;56610;48.872;2.400;2023-07-29T00:13:14;23.70;99.90
69418;DHT22;56610;48.872;2.400;2023-07-29T00:15:40;23.70;99.90
69418;DHT22;56610;48.872;2.400;2023-07-29T00:18:05;23.70;99.90
69418;DHT22;56610;48.872;2.400;2023-07-29T00:20:31;23.70;99.90
69418;DHT22;56610;48.872;2.400;2023-07-29T00:22:56;23.60;99.90
69418;DHT22;56610;48.872;2.400;2023-07-29T00:25:23;23.60;99.90
69418;DHT22;56610;48.872;2.400;2023-07-29T00:27:49;23.60;99.90
69418;DHT22;56610;48.872;2.400;2023-07-29T00:30:15;23.70;99.90
69418;DHT22;56610;48.872;2.400;2023-07-29T00:32:40;23.80;99.90
69418;DHT22;56610;48.872;2.400;2023-07-29T00:35:06;23.70;99.90
69418;DHT22;56610;48.872;2.400;2023-07-29T00:37:32;23.90;99.90
69418;DHT22;56610;48.872;2.400;2023-07-29T00:39:57;24.00;99.90
69418;DHT22;56610;48.872;2.400;2023-07-29T00:42:24;24.00;99.90
69418;DHT22;56610;48.872;2.400;2023-07-29T00:44:49;24.10;99.90
69418;DHT22;56610;48.872;2.400;2023-07-29T00:47:16;24.00;99.90
69418;DHT22;56610;48.872;2.400;2023-07-29T00:49:43;23.90;99.90
69418;DHT22;56610;48.872;2.400;2023-07-29T00:52:09;23.80;99.90
69418;DHT22;56610;48.872;2.400;2023-07-29T00:54:38;23.70;99.90
69418;DHT22;56610;48.872;2.400;2023-07-29T00:57:04;23.70;99.90
69418;DHT22;56610;48.872;2.400;2023-07-29T00:59:30;23.60;99.90
69418;DHT22;56610;48.872;2.400;2023-07-29T01:01:57;23.70;99.90
69418;DHT22;56610;48.872;2.400;2023-07-29T01:04:23;23.60;99.90
69418;DHT22;56610;48.872;2.400;2023-07-29T01:07:12;23.50;99.90
69418;DHT22;56610;48.872;2.400;2023-07-29T01:15:41;23.40;99.90
69418;DHT22;56610;48.872;2.400;2023-07-29T01:18:12;23.40;99.90
69418;DHT22;56610;48.872;2.400;2023-07-29T01:20:42;23.20;99.90
69418;DHT22;56610;48.872;2.400;2023-07-29T01:23:09;23.20;99.90
69418;DHT22;56610;48.872;2.400;2023-07-29T01:25:34;23.10;99.90
69418;DHT22;56610;48.872;2.400;2023-07-29T01:28:00;23.10;99.90
69418;DHT22;56610;48.872;2.400;2023-07-29T01:30:30;22.90;99.90
69418;DHT22;56610;48.872;2.400;2023-07-29T01:35:35;22.80;99.90
69418;DHT22;56610;48.872;2.400;2023-07-29T01:38:06;22.80;99.90
69418;DHT22;56610;48.872;2.400;2023-07-29T01:40:34;22.70;99.90
69418;DHT22;56610;48.872;2.400;2023-07-29T01:43:00;22.60;99.90
69418;DHT22;56610;48.872;2.400;2023-07-29T01:45:25;22.60;99.90
69418;DHT22;56610;48.872;2.400;2023-07-29T01:47:51;22.60;99.90
69418;DHT22;56610;48.872;2.400;2023-07-29T01:50:17;22.40;99.90
69418;DHT22;56610;48.872;2.400;2023-07-29T01:52:43;22.40;99.90
69418;DHT22;56610;48.872;2.400;2023-07-29T01:55:08;22.40;99.90
69418;DHT22;56610;48.872;2.400;2023-07-29T01:57:34;22.50;99.90
69418;DHT22;56610;48.872;2.400;2023-07-29T02:00:00;22.40;99.90
69418;DHT22;56610;48.872;2.400;2023-07-29T02:02:25;22.30;99.90
69418;DHT22;56610;48.872;2.400;2023-07-29T02:04:51;22.30;99.90
69418;DHT22;56610;48.872;2.400;2023-07-29T02:07:18;22.20;99.90
69418;DHT22;56610;48.872;2.400;2023-07-29T02:09:44;22.20;99.90
69418;DHT22;56610;48.872;2.400;2023-07-29T02:12:10;22.20;99.90
69418;DHT22;56610;48.872;2.400;2023-07-29T02:14:36;22.10;99.90
69418;DHT22;56610;48.872;2.400;2023-07-29T02:17:01;22.10;99.90
69418;DHT22;56610;48.872;2.400;2023-07-29T02:19:27;21.90;99.90
69418;DHT22;56610;48.872;2.400;2023-07-29T02:21:52;22.00;99.90
69418;DHT22;56610;48.872;2.400;2023-07-29T02:24:18;22.20;99.90
69418;DHT22;56610;48.872;2.400;2023-07-29T02:26:43;22.10;99.90
69418;DHT22;56610;48.872;2.400;2023-07-29T02:29:09;22.00;99.90
69418;DHT22;56610;48.872;2.400;2023-07-29T02:31:34;22.00;99.90
69418;DHT22;56610;48.872;2.400;2023-07-29T02:34:02;21.80;99.90
69418;DHT22;56610;48.872;2.400;2023-07-29T02:36:27;21.90;99.90
69418;DHT22;56610;48.872;2.400;2023-07-29T02:38:53;21.90;99.90
69418;DHT22;56610;48.872;2.400;2023-07-29T02:41:18;21.90;99.90
69418;DHT22;56610;48.872;2.400;2023-07-29T02:43:48;21.90;99.90
69418;DHT22;56610;48.872;2.400;2023-07-29T02:46:14;21.90;99.90
69418;DHT22;56610;48.872;2.400;2023-07-29T02:48:40;21.90;99.90
69418;DHT22;56610;48.872;2.400;2023-07-29T02:51:06;21.90;99.90
69418;DHT22;56610;48.872;2.400;2023-07-29T02:53:32;21.80;99.90
69418;DHT22;56610;48.872;2.400;2023-07-29T02:55:57;21.80;99.90
69418;DHT22;56610;48.872;2.400;2023-07-29T02:58:23;21.80;99.90
69418;DHT22;56610;48.872;2.400;2023-07-29T03:00:48;21.70;99.90
69418;DHT22;56610;48.872;2.400;2023-07-29T03:03:14;21.70;99.90
69418;DHT22;56610;48.872;2.400;2023-07-29T03:05:39;21.80;99.90
69418;DHT22;56610;48.872;2.400;2023-07-29T03:08:05;21.70;99.90
69418;DHT22;56610;48.872;2.400;2023-07-29T03:10:31;21.50;99.90
69418;DHT22;56610;48.872;2.400;2023-07-29T03:12:56;21.50;99.90
69418;DHT22;56610;48.872;2.400;2023-07-29T03:15:25;21.50;99.90
69418;DHT22;56610;48.872;2.400;2023-07-29T03:17:51;21.50;99.90
69418;DHT22;56610;48.872;2.400;2023-07-29T03:20:17;21.60;99.90
69418;DHT22;56610;48.872;2.400;2023-07-29T03:22:44;21.60;99.90
69418;DHT22;56610;48.872;2.400;2023-07-29T03:25:09;21.50;99.90
69418;DHT22;56610;48.872;2.400;2023-07-29T03:27:35;21.60;99.90
69418;DHT22;56610;48.872;2.400;2023-07-29T03:30:03;21.50;99.90
69418;DHT22;56610;48.872;2.400;2023-07-29T03:32:28;21.50;99.90
69418;DHT22;56610;48.872;2.400;2023-07-29T03:34:54;21.40;99.90
69418;DHT22;56610;48.872;2.400;2023-07-29T03:37:20;21.50;99.90
69418;DHT22;56610;48.872;2.400;2023-07-29T03:39:46;21.50;99.90
69418;DHT22;56610;48.872;2.400;2023-07-29T03:42:12;21.50;99.90
69418;DHT22;56610;48.872;2.400;2023-07-29T03:44:38;21.50;99.90
69418;DHT22;56610;48.872;2.400;2023-07-29T03:47:05;21.50;99.90
69418;DHT22;56610;48.872;2.400;2023-07-29T03:49:31;21.40;99.90
69418;DHT22;56610;48.872;2.400;2023-07-29T03:51:57;21.30;99.90
69418;DHT22;56610;48.872;2.400;2023-07-29T03:54:22;21.40;99.90
69418;DHT22;56610;48.872;2.400;2023-07-29T03:56:48;21.50;99.90
69418;DHT22;56610;48.872;2.400;2023-07-29T03:59:13;21.50;99.90
69418;DHT22;56610;48.872;2.400;2023-07-29T04:01:39;21.60;99.90
69418;DHT22;56610;48.872;2.400;2023-07-29T04:04:05;21.50;99.90
69418;DHT22;56610;48.872;2.400;2023-07-29T04:06:30;21.40;99.90
69418;DHT22;56610;48.872;2.400;2023-07-29T04:08:56;21.40;99.90
69418;DHT22;56610;48.872;2.400;2023-07-29T04:11:23;21.40;99.90
69418;DHT22;56610;48.872;2.400;2023-07-29T04:13:49;21.30;99.90
69418;DHT22;56610;48.872;2.400;2023-07-29T04:16:14;21.30;99.90
69418;DHT22;56610;48.872;2.400;2023-07-29T04:18:40;21.20;99.90
69418;DHT22;56610;48.872;2.400;2023-07-29T04:21:05;21.20;99.90
69418;DHT22;56610;48.872;2.400;2023-07-29T04:23:31;21.10;99.90
69418;DHT22;56610;48.872;2.400;2023-07-29T04:25:56;21.20;99.90
69418;DHT22;56610;48.872;2.400;2023-07-29T04:28:22;21.20;99.90
69418;DHT22;56610;48.872;2.400;2023-07-29T04:30:47;21.10;99.90
69418;DHT22;56610;48.872;2.400;2023-07-29T04:33:13;21.20;99.90
69418;DHT22;56610;48.872;2.400;2023-07-29T04:35:38;21.10;99.90
69418;DHT22;56610;48.872;2.400;2023-07-29T04:38:04;21.10;99.90
69418;DHT22;56610;48.872;2.400;2023-07-29T04:40:32;21.00;99.90
69418;DHT22;56610;48.872;2.400;2023-07-29T04:43:00;21.10;99.90
69418;DHT22;56610;48.872;2.400;2023-07-29T04:45:28;21.10;99.90
69418;DHT22;56610;48.872;2.400;2023-07-29T04:47:55;21.20;99.90
69418;DHT22;56610;48.872;2.400;2023-07-29T04:50:20;21.20;99.90
69418;DHT22;56610;48.872;2.400;2023-07-29T04:52:46;21.30;99.90
69418;DHT22;56610;48.872;2.400;2023-07-29T04:55:14;21.30;99.90
69418;DHT22;56610;48.872;2.400;2023-07-29T04:57:40;21.30;99.90
69418;DHT22;56610;48.872;2.400;2023-07-29T05:00:06;21.40;99.90
69418;DHT22;56610;48.872;2.400;2023-07-29T05:02:32;21.40;99.90
69418;DHT22;56610;48.872;2.400;2023-07-29T05:04:57;21.40;99.90
69418;DHT22;56610;48.872;2.400;2023-07-29T05:07:23;21.40;99.90
69418;DHT22;56610;48.872;2.400;2023-07-29T05:09:48;21.30;99.90
69418;DHT22;56610;48.872;2.400;2023-07-29T05:12:14;21.40;99.90
69418;DHT22;56610;48.872;2.400;2023-07-29T05:14:39;21.40;99.90
69418;DHT22;56610;48.872;2.400;2023-07-29T05:17:05;21.20;99.90
69418;DHT22;56610;48.872;2.400;2023-07-29T05:19:31;21.20;99.90
69418;DHT22;56610;48.872;2.400;2023-07-29T05:21:57;21.30;99.90
69418;DHT22;56610;48.872;2.400;2023-07-29T05:24:23;21.30;99.90
69418;DHT22;56610;48.872;2.400;2023-07-29T05:26:48;21.30;99.90
69418;DHT22;56610;48.872;2.400;2023-07-29T05:29:14;21.30;99.90
69418;DHT22;56610;48.872;2.400;2023-07-29T05:31:40;21.40;99.90
69418;DHT22;56610;48.872;2.400;2023-07-29T05:34:05;21.30;99.90
69418;DHT22;56610;48.872;2.400;2023-07-29T05:36:31;21.40;99.90
69418;DHT22;56610;48.872;2.400;2023-07-29T05:38:57;21.50;99.90
69418;DHT22;56610;48.872;2.400;2023-07-29T05:41:23;21.50;99.90
69418;DHT22;56610;48.872;2.400;2023-07-29T05:43:48;21.40;99.90
69418;DHT22;56610;48.872;2.400;2023-07-29T05:46:14;21.40;99.90
69418;DHT22;56610;48.872;2.400;2023-07-29T05:48:39;21.40;99.90
69418;DHT22;56610;48.872;2.400;2023-07-29T05:51:05;21.40;99.90
69418;DHT22;56610;48.872;2.400;2023-07-29T05:53:31;21.40;99.90
69418;DHT22;56610;48.872;2.400;2023-07-29T05:55:56;21.50;99.90
69418;DHT22;56610;48.872;2.400;2023-07-29T05:58:22;21.50;99.90
69418;DHT22;56610;48.872;2.400;2023-07-29T06:00:48;21.40;99.90
69418;DHT22;56610;48.872;2.400;2023-07-29T06:03:13;21.50;99.90
69418;DHT22;56610;48.872;2.400;2023-07-29T06:05:39;21.60;99.90
69418;DHT22;56610;48.872;2.400;2023-07-29T06:08:05;21.50;99.90
69418;DHT22;56610;48.872;2.400;2023-07-29T06:10:30;21.50;99.90
69418;DHT22;56610;48.872;2.400;2023-07-29T06:12:56;21.50;99.90
69418;DHT22;56610;48.872;2.400;2023-07-29T06:15:22;21.50;99.90
69418;DHT22;56610;48.872;2.400;2023-07-29T06:17:48;21.60;99.90
69418;DHT22;56610;48.872;2.400;2023-07-29T06:20:14;21.60;99.90
69418;DHT22;56610;48.872;2.400;2023-07-29T06:22:40;21.60;99.90
69418;DHT22;56610;48.872;2.400;2023-07-29T06:25:06;21.50;99.90
69418;DHT22;56610;48.872;2.400;2023-07-29T06:27:31;21.60;99.90
69418;DHT22;56610;48.872;2.400;2023-07-29T06:29:57;21.50;99.90
69418;DHT22;56610;48.872;2.400;2023-07-29T06:32:22;21.50;99.90
69418;DHT22;56610;48.872;2.400;2023-07-29T06:34:48;21.50;99.90
69418;DHT22;56610;48.872;2.400;2023-07-29T06:37:14;21.60;99.90
69418;DHT22;56610;48.872;2.400;2023-07-29T06:39:39;21.60;99.90
69418;DHT22;56610;48.872;2.400;2023-07-29T06:42:05;21.80;99.90
69418;DHT22;56610;48.872;2.400;2023-07-29T06:44:32;21.80;99.90
69418;DHT22;56610;48.872;2.400;2023-07-29T06:46:58;21.80;99.90
69418;DHT22;56610;48.872;2.400;2023-07-29T06:49:23;21.90;99.90
69418;DHT22;56610;48.872;2.400;2023-07-29T06:51:49;22.00;99.90
69418;DHT22;56610;48.872;2.400;2023-07-29T06:54:16;21.90;99.90
69418;DHT22;56610;48.872;2.400;2023-07-29T06:56:42;21.90;99.90
69418;DHT22;56610;48.872;2.400;2023-07-29T06:59:08;22.00;99.90
69418;DHT22;56610;48.872;2.400;2023-07-29T07:01:34;22.10;99.90
69418;DHT22;56610;48.872;2.400;2023-07-29T07:04:00;22.00;99.90
69418;DHT22;56610;48.872;2.400;2023-07-29T07:06:25;21.90;99.90
69418;DHT22;56610;48.872;2.400;2023-07-29T07:08:51;22.00;99.90
69418;DHT22;56610;48.872;2.400;2023-07-29T07:11:18;21.90;99.90
69418;DHT22;56610;48.872;2.400;2023-07-29T07:13:44;21.80;99.90
69418;DHT22;56610;48.872;2.400;2023-07-29T07:16:09;21.80;99.90
69418;DHT22;56610;48.872;2.400;2023-07-29T07:18:35;21.70;99.90
69418;DHT22;56610;48.872;2.400;2023-07-29T07:21:00;21.80;99.90
69418;DHT22;56610;48.872;2.400;2023-07-29T07:23:26;21.90;99.90
69418;DHT22;56610;48.872;2.400;2023-07-29T07:25:52;21.90;99.90
69418;DHT22;56610;48.872;2.400;2023-07-29T07:28:17;21.80;99.90
69418;DHT22;56610;48.872;2.400;2023-07-29T07:30:43;21.80;99.90
69418;DHT22;56610;48.872;2.400;2023-07-29T07:33:08;21.90;99.90
69418;DHT22;56610;48.872;2.400;2023-07-29T07:35:34;22.00;99.90
69418;DHT22;56610;48.872;2.400;2023-07-29T07:38:00;21.90;99.90
69418;DHT22;56610;48.872;2.400;2023-07-29T07:40:27;22.00;99.90
69418;DHT22;56610;48.872;2.400;2023-07-29T07:42:53;22.00;99.90
69418;DHT22;56610;48.872;2.400;2023-07-29T07:45:19;22.00;99.90
69418;DHT22;56610;48.872;2.400;2023-07-29T07:47:44;22.00;99.90
69418;DHT22;56610;48.872;2.400;2023-07-29T07:50:10;22.00;99.90
69418;DHT22;56610;48.872;2.400;2023-07-29T07:52:36;22.10;99.90
69418;DHT22;56610;48.872;2.400;2023-07-29T07:55:01;22.00;99.90
69418;DHT22;56610;48.872;2.400;2023-07-29T07:57:27;21.90;99.90
69418;DHT22;56610;48.872;2.400;2023-07-29T07:59:53;22.00;99.90
69418;DHT22;56610;48.872;2.400;2023-07-29T08:02:19;21.90;99.90
69418;DHT22;56610;48.872;2.400;2023-07-29T08:04:45;22.00;99.90
69418;DHT22;56610;48.872;2.400;2023-07-29T08:07:11;22.10;99.90
69418;DHT22;56610;48.872;2.400;2023-07-29T08:09:36;22.10;99.90
69418;DHT22;56610;48.872;2.400;2023-07-29T08:12:02;22.00;99.90
69418;DHT22;56610;48.872;2.400;2023-07-29T08:14:28;22.10;99.90
69418;DHT22;56610;48.872;2.400;2023-07-29T08:16:53;22.00;99.90
69418;DHT22;56610;48.872;2.400;2023-07-29T08:19:19;22.10;99.90
69418;DHT22;56610;48.872;2.400;2023-07-29T08:21:44;22.20;99.90
69418;DHT22;56610;48.872;2.400;2023-07-29T08:24:10;22.40;99.90
69418;DHT22;56610;48.872;2.400;2023-07-29T08:26:35;22.40;99.90
69418;DHT22;56610;48.872;2.400;2023-07-29T08:29:01;22.50;99.90
69418;DHT22;56610;48.872;2.400;2023-07-29T08:31:26;22.50;99.90
69418;DHT22;56610;48.872;2.400;2023-07-29T08:33:52;22.40;99.90
69418;DHT22;56610;48.872;2.400;2023-07-29T08:36:18;22.40;99.90
69418;DHT22;56610;48.872;2.400;2023-07-29T08:38:43;22.40;99.90
69418;DHT22;56610;48.872;2.400;2023-07-29T08:41:29;22.40;99.90
69418;DHT22;56610;48.872;2.400;2023-07-29T08:44:07;22.40;99.90
69418;DHT22;56610;48.872;2.400;2023-07-29T08:46:34;22.70;99.90
69418;DHT22;56610;48.872;2.400;2023-07-29T08:49:01;22.60;99.90
69418;DHT22;56610;48.872;2.400;2023-07-29T08:51:27;22.60;99.90
69418;DHT22;56610;48.872;2.400;2023-07-29T08:53:54;22.60;99.90
69418;DHT22;56610;48.872;2.400;2023-07-29T08:56:20;22.60;99.90
69418;DHT22;56610;48.872;2.400;2023-07-29T08:58:47;22.70;99.90
69418;DHT22;56610;48.872;2.400;2023-07-29T09:01:12;22.70;99.90
69418;DHT22;56610;48.872;2.400;2023-07-29T09:03:40;22.60;99.90
69418;DHT22;56610;48.872;2.400;2023-07-29T09:06:07;22.60;99.90
69418;DHT22;56610;48.872;2.400;2023-07-29T09:08:33;22.60;99.90
69418;DHT22;56610;48.872;2.400;2023-07-29T09:11:00;22.60;99.90
69418;DHT22;56610;48.872;2.400;2023-07-29T09:13:25;22.60;99.90
69418;DHT22;56610;48.872;2.400;2023-07-29T09:15:54;22.90;99.90
69418;DHT22;56610;48.872;2.400;2023-07-29T09:18:21;22.80;99.90
69418;DHT22;56610;48.872;2.400;2023-07-29T09:20:48;22.90;99.90
69418;DHT22;56610;48.872;2.400;2023-07-29T09:23:14;23.10;99.90
69418;DHT22;56610;48.872;2.400;2023-07-29T09:25:40;23.20;99.90
69418;DHT22;56610;48.872;2.400;2023-07-29T09:28:13;23.30;99.90
69418;DHT22;56610;48.872;2.400;2023-07-29T09:30:44;23.60;99.90
69418;DHT22;56610;48.872;2.400;2023-07-29T09:33:10;23.80;99.90
69418;DHT22;56610;48.872;2.400;2023-07-29T09:35:37;23.80;99.90
69418;DHT22;56610;48.872;2.400;2023-07-29T09:38:05;24.00;99.90
69418;DHT22;56610;48.872;2.400;2023-07-29T09:40:40;24.00;99.90
69418;DHT22;56610;48.872;2.400;2023-07-29T09:43:10;23.90;99.90
69418;DHT22;56610;48.872;2.400;2023-07-29T09:45:37;23.90;99.90
69418;DHT22;56610;48.872;2.400;2023-07-29T09:48:04;23.90;99.90
69418;DHT22;56610;48.872;2.400;2023-07-29T09:50:35;24.00;99.90
69418;DHT22;56610;48.872;2.400;2023-07-29T09:53:02;24.00;99.90
69418;DHT22;56610;48.872;2.400;2023-07-29T09:55:28;24.00;99.90
69418;DHT22;56610;48.872;2.400;2023-07-29T09:57:58;24.10;99.90
69418;DHT22;56610;48.872;2.400;2023-07-29T10:00:30;24.10;99.90
69418;DHT22;56610;48.872;2.400;2023-07-29T10:02:57;24.20;99.90
69418;DHT22;56610;48.872;2.400;2023-07-29T10:05:25;24.10;99.90
69418;DHT22;56610;48.872;2.400;2023-07-29T10:07:50;24.20;99.90
69418;DHT22;56610;48.872;2.400;2023-07-29T10:10:16;24.20;99.90
69418;DHT22;56610;48.872;2.400;2023-07-29T10:12:43;24.40;99.90
69418;DHT22;56610;48.872;2.400;2023-07-29T10:15:09;24.30;99.90
69418;DHT22;56610;48.872;2.400;2023-07-29T10:17:37;24.30;99.90
69418;DHT22;56610;48.872;2.400;2023-07-29T10:20:07;24.30;99.90
69418;DHT22;56610;48.872;2.400;2023-07-29T10:22:38;24.20;99.90
69418;DHT22;56610;48.872;2.400;2023-07-29T10:25:23;24.20;99.90
69418;DHT22;56610;48.872;2.400;2023-07-29T10:27:53;24.10;99.90
69418;DHT22;56610;48.872;2.400;2023-07-29T10:30:21;24.30;99.90
69418;DHT22;56610;48.872;2.400;2023-07-29T10:32:48;24.40;99.90
69418;DHT22;56610;48.872;2.400;2023-07-29T10:35:15;24.70;99.90
69418;DHT22;56610;48.872;2.400;2023-07-29T10:37:41;24.60;99.90
69418;DHT22;56610;48.872;2.400;2023-07-29T10:40:09;24.50;99.90
69418;DHT22;56610;48.872;2.400;2023-07-29T10:42:36;24.60;99.90
69418;DHT22;56610;48.872;2.400;2023-07-29T10:45:21;24.60;99.90
69418;DHT22;56610;48.872;2.400;2023-07-29T10:47:47;24.80;99.90
69418;DHT22;56610;48.872;2.400;2023-07-29T10:50:21;24.80;99.90
69418;DHT22;56610;48.872;2.400;2023-07-29T10:52:51;25.00;99.90
69418;DHT22;56610;48.872;2.400;2023-07-29T10:55:29;25.10;99.90
69418;DHT22;56610;48.872;2.400;2023-07-29T10:58:10;25.10;99.90
69418;DHT22;56610;48.872;2.400;2023-07-29T11:00:36;25.20;99.90
69418;DHT22;56610;48.872;2.400;2023-07-29T11:03:05;25.10;99.90
69418;DHT22;56610;48.872;2.400;2023-07-29T11:05:51;25.00;99.90
69418;DHT22;56610;48.872;2.400;2023-07-29T11:08:18;25.00;99.90
69418;DHT22;56610;48.872;2.400;2023-07-29T11:13:30;25.00;99.90
69418;DHT22;56610;48.872;2.400;2023-07-29T11:15:56;24.90;99.90
69418;DHT22;56610;48.872;2.400;2023-07-29T11:18:27;25.00;99.90
69418;DHT22;56610;48.872;2.400;2023-07-29T11:20:54;25.00;99.90
69418;DHT22;56610;48.872;2.400;2023-07-29T11:23:20;25.10;99.90
69418;DHT22;56610;48.872;2.400;2023-07-29T11:25:52;25.20;99.90
69418;DHT22;56610;48.872;2.400;2023-07-29T11:28:18;25.10;99.90
69418;DHT22;56610;48.872;2.400;2023-07-29T11:30:43;25.10;99.90
69418;DHT22;56610;48.872;2.400;2023-07-29T11:33:10;25.00;99.90
69418;DHT22;56610;48.872;2.400;2023-07-29T11:35:36;24.80;99.90
69418;DHT22;56610;48.872;2.400;2023-07-29T11:38:02;24.90;99.90
69418;DHT22;56610;48.872;2.400;2023-07-29T11:40:28;24.80;99.90
69418;DHT22;56610;48.872;2.400;2023-07-29T11:42:54;24.90;99.90
69418;DHT22;56610;48.872;2.400;2023-07-29T11:45:21;25.00;99.90
69418;DHT22;56610;48.872;2.400;2023-07-29T11:47:47;25.10;99.90
69418;DHT22;56610;48.872;2.400;2023-07-29T11:50:13;25.20;99.90
69418;DHT22;56610;48.872;2.400;2023-07-29T11:52:41;25.30;99.90
69418;DHT22;56610;48.872;2.400;2023-07-29T11:55:08;25.30;99.90
69418;DHT22;56610;48.872;2.400;2023-07-29T11:57:36;25.50;99.90
69418;DHT22;56610;48.872;2.400;2023-07-29T12:00:03;25.40;99.90
69418;DHT22;56610;48.872;2.400;2023-07-29T12:02:32;25.50;99.90
69418;DHT22;56610;48.872;2.400;2023-07-29T12:04:59;25.50;99.90
69418;DHT22;56610;48.872;2.400;2023-07-29T12:07:25;25.70;99.90
69418;DHT22;56610;48.872;2.400;2023-07-29T12:09:51;25.80;99.90
69418;DHT22;56610;48.872;2.400;2023-07-29T12:12:17;25.80;99.90
69418;DHT22;56610;48.872;2.400;2023-07-29T12:14:45;25.70;99.90
69418;DHT22;56610;48.872;2.400;2023-07-29T12:17:11;25.80;99.90
69418;DHT22;56610;48.872;2.400;2023-07-29T12:19:38;25.90;99.90
69418;DHT22;56610;48.872;2.400;2023-07-29T12:22:05;26.00;99.90
69418;DHT22;56610;48.872;2.400;2023-07-29T12:24:32;26.10;99.90
69418;DHT22;56610;48.872;2.400;2023-07-29T12:26:59;25.90;99.90
69418;DHT22;56610;48.872;2.400;2023-07-29T12:29:25;26.10;99.90
69418;DHT22;56610;48.872;2.400;2023-07-29T12:32:01;25.90;99.90
69418;DHT22;56610;48.872;2.400;2023-07-29T12:34:28;25.90;99.90
69418;DHT22;56610;48.872;2.400;2023-07-29T12:36:55;26.00;99.90
69418;DHT22;56610;48.872;2.400;2023-07-29T12:39:22;25.90;99.90
69418;DHT22;56610;48.872;2.400;2023-07-29T12:41:49;26.40;99.90
69418;DHT22;56610;48.872;2.400;2023-07-29T12:44:15;26.70;99.90
69418;DHT22;56610;48.872;2.400;2023-07-29T12:46:41;26.80;99.90
69418;DHT22;56610;48.872;2.400;2023-07-29T12:49:06;27.00;99.90
69418;DHT22;56610;48.872;2.400;2023-07-29T12:51:32;27.10;99.90
69418;DHT22;56610;48.872;2.400;2023-07-29T12:53:58;27.30;99.90
69418;DHT22;56610;48.872;2.400;2023-07-29T12:56:24;27.50;99.90
69418;DHT22;56610;48.872;2.400;2023-07-29T12:58:49;27.40;99.90
69418;DHT22;56610;48.872;2.400;2023-07-29T13:01:15;27.50;99.90
69418;DHT22;56610;48.872;2.400;2023-07-29T13:03:43;27.80;99.90
69418;DHT22;56610;48.872;2.400;2023-07-29T13:06:08;28.10;99.90
69418;DHT22;56610;48.872;2.400;2023-07-29T13:08:34;28.70;99.90
69418;DHT22;56610;48.872;2.400;2023-07-29T13:11:00;28.90;99.90
69418;DHT22;56610;48.872;2.400;2023-07-29T13:13:25;28.90;99.90
69418;DHT22;56610;48.872;2.400;2023-07-29T13:15:51;29.00;99.90
69418;DHT22;56610;48.872;2.400;2023-07-29T13:18:18;29.00;99.90
69418;DHT22;56610;48.872;2.400;2023-07-29T13:20:43;29.10;99.90
69418;DHT22;56610;48.872;2.400;2023-07-29T13:23:09;29.40;99.90
69418;DHT22;56610;48.872;2.400;2023-07-29T13:25:34;29.00;99.90
69418;DHT22;56610;48.872;2.400;2023-07-29T13:28:00;29.00;99.90
69418;DHT22;56610;48.872;2.400;2023-07-29T13:30:25;28.90;99.90
69418;DHT22;56610;48.872;2.400;2023-07-29T13:32:51;28.90;99.90
69418;DHT22;56610;48.872;2.400;2023-07-29T13:35:17;28.90;99.90
69418;DHT22;56610;48.872;2.400;2023-07-29T13:37:42;28.90;99.90
69418;DHT22;56610;48.872;2.400;2023-07-29T13:40:08;28.80;99.90
69418;DHT22;56610;48.872;2.400;2023-07-29T13:42:33;28.70;99.90
69418;DHT22;56610;48.872;2.400;2023-07-29T13:45:00;28.80;99.90
69418;DHT22;56610;48.872;2.400;2023-07-29T13:47:26;28.60;99.90
69418;DHT22;56610;48.872;2.400;2023-07-29T13:49:54;28.50;99.90
69418;DHT22;56610;48.872;2.400;2023-07-29T13:52:19;28.00;99.90
69418;DHT22;56610;48.872;2.400;2023-07-29T13:54:45;28.00;99.90
69418;DHT22;56610;48.872;2.400;2023-07-29T13:57:11;28.00;99.90
69418;DHT22;56610;48.872;2.400;2023-07-29T13:59:36;28.40;99.90
69418;DHT22;56610;48.872;2.400;2023-07-29T14:02:05;28.40;99.90
69418;DHT22;56610;48.872;2.400;2023-07-29T14:04:32;28.50;99.90
69418;DHT22;56610;48.872;2.400;2023-07-29T14:06:58;28.70;99.90
69418;DHT22;56610;48.872;2.400;2023-07-29T14:09:23;28.60;99.90
69418;DHT22;56610;48.872;2.400;2023-07-29T14:11:49;28.60;99.90
69418;DHT22;56610;48.872;2.400;2023-07-29T14:14:15;28.70;99.90
69418;DHT22;56610;48.872;2.400;2023-07-29T14:16:40;28.70;99.90
69418;DHT22;56610;48.872;2.400;2023-07-29T14:19:06;28.70;99.90
69418;DHT22;56610;48.872;2.400;2023-07-29T14:21:31;28.60;99.90
69418;DHT22;56610;48.872;2.400;2023-07-29T14:23:57;28.60;99.90
69418;DHT22;56610;48.872;2.400;2023-07-29T14:26:23;28.80;99.90
69418;DHT22;56610;48.872;2.400;2023-07-29T14:28:48;29.00;99.90
69418;DHT22;56610;48.872;2.400;2023-07-29T14:31:15;29.10;99.90
69418;DHT22;56610;48.872;2.400;2023-07-29T14:33:45;29.30;99.90
69418;DHT22;56610;48.872;2.400;2023-07-29T14:36:10;29.20;99.90
69418;DHT22;56610;48.872;2.400;2023-07-29T14:38:36;29.10;99.90
69418;DHT22;56610;48.872;2.400;2023-07-29T14:41:03;28.80;99.90
69418;DHT22;56610;48.872;2.400;2023-07-29T14:43:30;28.70;99.90
69418;DHT22;56610;48.872;2.400;2023-07-29T14:45:55;28.70;99.90
69418;DHT22;56610;48.872;2.400;2023-07-29T14:48:21;28.50;99.90
69418;DHT22;56610;48.872;2.400;2023-07-29T14:50:47;28.30;99.90
69418;DHT22;56610;48.872;2.400;2023-07-29T14:53:13;28.40;99.90
69418;DHT22;56610;48.872;2.400;2023-07-29T14:55:38;28.10;99.90
69418;DHT22;56610;48.872;2.400;2023-07-29T14:58:04;27.90;99.90
69418;DHT22;56610;48.872;2.400;2023-07-29T15:00:29;27.90;99.90
69418;DHT22;56610;48.872;2.400;2023-07-29T15:02:55;27.90;99.90
69418;DHT22;56610;48.872;2.400;2023-07-29T15:05:20;27.70;99.90
69418;DHT22;56610;48.872;2.400;2023-07-29T15:07:46;27.80;99.90
69418;DHT22;56610;48.872;2.400;2023-07-29T15:10:16;27.70;99.90
69418;DHT22;56610;48.872;2.400;2023-07-29T15:12:42;27.60;99.90
69418;DHT22;56610;48.872;2.400;2023-07-29T15:15:08;27.50;99.90
69418;DHT22;56610;48.872;2.400;2023-07-29T15:17:34;27.40;99.90
69418;DHT22;56610;48.872;2.400;2023-07-29T15:19:59;27.30;99.90
69418;DHT22;56610;48.872;2.400;2023-07-29T15:22:25;27.10;99.90
69418;DHT22;56610;48.872;2.400;2023-07-29T15:24:51;26.70;99.90
69418;DHT22;56610;48.872;2.400;2023-07-29T15:27:16;26.30;99.90
69418;DHT22;56610;48.872;2.400;2023-07-29T15:29:42;25.90;99.90
69418;DHT22;56610;48.872;2.400;2023-07-29T15:32:07;25.60;99.90
69418;DHT22;56610;48.872;2.400;2023-07-29T15:34:33;25.60;99.90
69418;DHT22;56610;48.872;2.400;2023-07-29T15:36:59;25.40;99.90